Terminal Aerodrome Forecast
Issued by NWS

Current Version | Previous Version | Text Only | Print | Product List | Glossary On
Versions: 1 2 3 4 5 6 7 8 9 10 11 12 13 14 15 16 17 18 19 20 21 22
000
FTUS45 KGJT 270546
TAFEGE
TAF
KEGE 270546Z 2706/2806 11005KT P6SM BKN080 WS020/23030KT
     FM271000 VRB03KT P6SM VCSH SCT040 BKN070 WS020/23030KT
     FM271900 23020G28KT P6SM VCSH BKN040 OVC070
     FM272300 27015G25KT 3SM -SHSN OVC025
      AMD LTD TO CLD VIS AND WIND TIL 271300=

USA.gov is the U.S. government's official web portal to all federal, state and local government web resources and services.